Terminal Aerodrome Forecast
Issued by NWS Jackson, MS

Home | Current Version | Previous Version | Text Only | Print | Product List | Glossary On
Versions: 1 2 3 4 5 6 7 8 9 10 11 12 13
933
FTUS44 KJAN 281122
TAFGLH
TAF
KGLH 281122Z 2812/2912 23008KT P6SM VCSH SCT060 BKN100
     FM281800 24005KT P6SM SCT050
     FM290000 28006KT P6SM -TSRA SCT025CB BKN050
     FM290500 31005KT P6SM SCT050=

USA.gov is the U.S. government's official web portal to all federal, state and local government web resources and services.